Statesville, North Carolina
Current Conditions -  °F | °C
As of 11:35 AM on Tuesday 21 Oct 2014 (Local Time) from KSVH Reporting Station
Clear Clear  
Wind Chill: 66°   Ceiling: Unl
Heat Index: 66°   Visibility: 10mi
Dew Point: 52°   Wind: 8mph
Humidity: 60%   Direction: 280°W
Pressure: 29.94"   Gusts: NA
Location:  35.79°N, 80.89°W
Report Text: KSVH 211535Z AUTO 28007KT 10SM CLR 19/11 A2994 RMK AO2 T01890111
Loading
Personal Weather Stations






























Interactive Weather Map
Tropical Storm Tracking
New forecast layout! Learn more

10-Day Weather Forecast

Advertisements
Track Severe Weather on mobile